CheckWX is a tool to help pilots better visualize weather data.  It is not intended as a substitute for an official pre-flight weather briefing.

02:00:06 UTC

KLAN TAF
Capital Region International Airport
Lansing, Michigan, USA
KLAN 182348Z 1900/1924 27006KT P6SM BKN060 FM190300 24004KT P6SM SCT060 FM190600 21004KT P6SM BKN100 FM191500 24008KT P6SM BKN050 FM192300 24007KT P6SM SCT120

Mar-19@
00:00 UTC

Mar-19 @ 00:00 UTC

Mar-19@
03:00 UTC

Mar-19 @ 03:00 UTC

KLAN 182348Z 1900/1924 27006KT P6SM BKN060
Wind
  • 270° at 6 KTS
Cloud Levels
  • Broken at 6,000' AGL

Mar-19@
03:00 UTC

Mar-19 @ 03:00 UTC

Mar-19@
06:00 UTC

Mar-19 @ 06:00 UTC

FM190300 24004KT P6SM SCT060

From

From Standard forecast or significant change

Wind
  • 240° at 4 KTS
Cloud Levels
  • Scattered at 6,000' AGL

Mar-19@
06:00 UTC

Mar-19 @ 06:00 UTC

Mar-19@
15:00 UTC

Mar-19 @ 15:00 UTC

FM190600 21004KT P6SM BKN100

From

From Standard forecast or significant change

Wind
  • 210° at 4 KTS
Cloud Levels
  • Broken at 10,000' AGL

Mar-19@
15:00 UTC

Mar-19 @ 15:00 UTC

Mar-19@
23:00 UTC

Mar-19 @ 23:00 UTC

FM191500 24008KT P6SM BKN050

From

From Standard forecast or significant change

Wind
  • 240° at 8 KTS
Cloud Levels
  • Broken at 5,000' AGL

Mar-19@
23:00 UTC

Mar-19 @ 23:00 UTC

Mar-20@
00:00 UTC

Mar-20 @ 00:00 UTC

FM192300 24007KT P6SM SCT120

From

From Standard forecast or significant change

Wind
  • 240° at 7 KTS
Cloud Levels
  • Scattered at 12,000' AGL